Time;durP1;ratioP1;P1;durP2;ratioP2;P2;SDS_P1;SDS_P2;PMS_P1;PMS_P2;Temp;Humidity;BMP_temperature;BMP_pressure;BME280_temperature;BME280_humidity;BME280_pressure;Samples;Min_cycle;Max_cycle;Signal;HPM_P1;HPM_P2
2022/08/20 00:01:45;;;;;;;640.70;471.93;;;22.30;99.90;;;;;;5075590;28;20188;-84
2022/08/20 00:04:13;;;;;;;634.90;449.03;;;22.30;99.90;;;;;;5085624;28;20200;-83
2022/08/20 00:06:41;;;;;;;639.50;454.47;;;22.40;99.90;;;;;;5078062;28;20218;-85
2022/08/20 00:09:09;;;;;;;637.10;453.90;;;22.40;99.90;;;;;;5075348;28;20195;-84
2022/08/20 00:11:36;;;;;;;646.17;496.40;;;22.40;1.00;;;;;;5084313;28;20196;-87
2022/08/20 00:14:06;;;;;;;673.27;564.17;;;22.40;1.00;;;;;;5075187;28;20210;-85
2022/08/20 00:16:37;;;;;;;689.03;608.13;;;22.40;1.00;;;;;;5081758;28;20195;-84
2022/08/20 00:19:06;;;;;;;669.80;554.40;;;22.30;1.00;;;;;;5087469;28;20187;-88
2022/08/20 00:21:34;;;;;;;636.30;434.87;;;22.30;1.00;;;;;;5087595;28;20198;-88
2022/08/20 00:24:03;;;;;;;641.83;455.70;;;22.30;1.00;;;;;;5076445;28;20188;-85
2022/08/20 00:26:31;;;;;;;639.70;453.37;;;22.30;1.00;;;;;;5085349;28;20204;-89
2022/08/20 00:28:58;;;;;;;640.67;459.23;;;22.30;1.00;;;;;;5077794;28;20208;-89
2022/08/20 00:31:25;;;;;;;644.90;479.87;;;22.30;1.00;;;;;;5074756;28;20192;-87
2022/08/20 00:33:53;;;;;;;645.87;473.67;;;22.30;1.00;;;;;;5082950;28;20242;-84
2022/08/20 00:36:20;;;;;;;655.13;515.43;;;22.30;1.00;;;;;;5074563;28;20188;-86
2022/08/20 00:38:48;;;;;;;651.17;483.63;;;22.30;44.60;;;;;;5074184;28;20227;-88
2022/08/20 00:41:21;;;;;;;641.13;464.13;;;22.30;99.90;;;;;;5094464;28;20192;-88
2022/08/20 00:43:51;;;;;;;641.93;453.90;;;22.30;99.90;;;;;;5093729;28;20192;-86
2022/08/20 00:46:21;;;;;;;645.60;449.70;;;22.20;99.90;;;;;;5089180;28;20711;-91
2022/08/20 00:48:51;;;;;;;633.50;431.90;;;22.20;99.90;;;;;;5086075;28;20657;-85
2022/08/20 00:51:26;;;;;;;639.80;458.73;;;22.20;99.90;;;;;;5080502;28;20203;-84
2022/08/20 00:53:56;;;;;;;638.00;449.90;;;22.20;99.90;;;;;;5085954;28;20195;-85
2022/08/20 00:56:25;;;;;;;645.43;450.20;;;22.20;99.90;;;;;;5080002;28;20258;-85
2022/08/20 00:58:53;;;;;;;641.70;459.13;;;22.20;99.90;;;;;;5084145;28;20212;-88
2022/08/20 01:01:22;;;;;;;642.33;465.00;;;22.20;1.00;;;;;;5073930;28;20195;-87
2022/08/20 01:03:50;;;;;;;644.73;450.27;;;22.20;1.00;;;;;;5074201;28;20219;-90
2022/08/20 01:06:17;;;;;;;645.90;456.53;;;22.20;1.00;;;;;;5074066;28;20192;-85
2022/08/20 01:08:44;;;;;;;645.10;461.03;;;22.20;1.00;;;;;;5073929;28;20196;-84
2022/08/20 01:11:15;;;;;;;648.60;458.77;;;22.20;1.00;;;;;;5074170;28;20203;-87
2022/08/20 01:13:45;;;;;;;648.70;458.83;;;22.20;1.00;;;;;;5076251;28;20224;-85
2022/08/20 01:16:20;;;;;;;642.67;454.43;;;22.30;1.00;;;;;;5074020;28;20569;-86
2022/08/20 01:18:49;;;;;;;646.57;455.67;;;22.30;1.00;;;;;;5074158;28;20203;-88
2022/08/20 01:21:20;;;;;;;652.03;464.70;;;22.30;1.00;;;;;;5074863;28;20200;-86
2022/08/20 01:23:55;;;;;;;646.40;458.83;;;22.30;1.00;;;;;;5074198;28;20184;-85
2022/08/20 01:26:27;;;;;;;647.37;463.27;;;22.30;1.00;;;;;;5073784;28;20198;-89
2022/08/20 01:28:58;;;;;;;656.03;476.53;;;22.30;1.00;;;;;;5073539;28;20199;-85
2022/08/20 01:31:29;;;;;;;652.00;479.07;;;22.30;1.00;;;;;;5073604;28;20188;-89
2022/08/20 01:33:58;;;;;;;652.80;466.97;;;22.30;1.00;;;;;;5093016;28;20192;-84
2022/08/20 01:36:30;;;;;;;644.33;459.27;;;22.30;1.00;;;;;;5083214;28;20193;-84
2022/08/20 01:38:57;;;;;;;657.13;469.77;;;22.30;99.90;;;;;;5087623;28;20200;-86
2022/08/20 01:41:44;;;;;;;649.07;464.57;;;22.30;1.00;;;;;;5073207;28;20207;-90
2022/08/20 01:44:12;;;;;;;648.20;465.77;;;22.30;99.90;;;;;;5091590;28;20184;-88
2022/08/20 01:46:42;;;;;;;651.80;469.80;;;22.30;1.00;;;;;;5082828;28;20845;-86
2022/08/20 01:49:14;;;;;;;648.90;467.10;;;22.30;99.90;;;;;;5090752;28;20215;-88
2022/08/20 01:51:41;;;;;;;648.77;469.73;;;22.40;99.90;;;;;;5078329;28;20192;-88
2022/08/20 01:54:09;;;;;;;652.77;473.67;;;22.40;99.90;;;;;;5087072;28;20658;-85
2022/08/20 01:56:52;;;;;;;658.97;475.63;;;22.40;99.90;;;;;;5081066;28;20252;-84
2022/08/20 01:59:19;;;;;;;651.57;472.63;;;22.40;1.00;;;;;;5093045;28;20669;-87
2022/08/20 02:01:47;;;;;;;654.13;468.37;;;22.40;1.00;;;;;;5077448;28;20200;-84
2022/08/20 02:04:15;;;;;;;655.87;474.73;;;22.40;1.00;;;;;;5072604;28;20242;-84
2022/08/20 02:06:45;;;;;;;646.77;461.57;;;22.40;1.00;;;;;;5080834;28;20203;-86
2022/08/20 02:09:12;;;;;;;649.83;472.17;;;22.40;1.00;;;;;;5078523;28;20615;-86
2022/08/20 02:11:41;;;;;;;651.20;475.97;;;22.40;1.00;;;;;;5092511;28;20188;-85
2022/08/20 02:14:10;;;;;;;654.10;476.77;;;22.40;99.90;;;;;;5080339;28;20200;-87
2022/08/20 02:16:40;;;;;;;654.83;475.37;;;22.40;99.90;;;;;;5072774;28;20184;-85
2022/08/20 02:19:10;;;;;;;657.33;479.97;;;22.40;99.90;;;;;;5072967;28;20221;-86
2022/08/20 02:21:41;;;;;;;652.23;474.27;;;22.40;1.00;;;;;;5085754;28;20617;-85
2022/08/20 02:24:08;;;;;;;655.17;478.77;;;22.40;99.90;;;;;;5073009;28;20184;-89
2022/08/20 02:26:36;;;;;;;652.63;474.50;;;22.40;99.90;;;;;;5086451;28;20192;-86
2022/08/20 02:29:08;;;;;;;652.80;474.53;;;22.40;99.90;;;;;;5078753;28;20653;-86
2022/08/20 02:31:35;;;;;;;654.03;473.83;;;22.40;1.00;;;;;;5092935;28;20192;-86
2022/08/20 02:34:02;;;;;;;654.80;472.67;;;22.40;1.00;;;;;;5088087;28;20192;-86
2022/08/20 02:36:30;;;;;;;651.53;474.83;;;22.40;99.90;;;;;;5083561;28;20200;-91
2022/08/20 02:38:57;;;;;;;653.93;482.63;;;22.40;99.90;;;;;;5089477;28;20220;-86
2022/08/20 02:41:24;;;;;;;652.00;479.03;;;22.40;99.90;;;;;;5081873;28;20198;-83
2022/08/20 02:43:51;;;;;;;653.53;472.53;;;22.30;99.90;;;;;;5077064;28;20189;-86
2022/08/20 02:46:20;;;;;;;656.27;477.67;;;22.40;1.00;;;;;;5073051;28;20242;-89
2022/08/20 02:48:47;;;;;;;650.07;470.93;;;22.40;1.00;;;;;;5072675;28;20313;-86
2022/08/20 02:51:14;;;;;;;647.93;464.47;;;22.30;1.00;;;;;;5088854;28;20669;-88
2022/08/20 02:53:42;;;;;;;652.37;472.60;;;22.30;1.00;;;;;;5092649;28;20200;-90
2022/08/20 02:56:10;;;;;;;650.97;470.67;;;22.30;1.00;;;;;;5078175;28;20276;-88
2022/08/20 02:58:39;;;;;;;649.37;468.80;;;22.30;99.90;;;;;;5090709;28;20211;-85
2022/08/20 03:01:11;;;;;;;661.73;522.93;;;22.30;1.00;;;;;;5086656;28;20269;-84
2022/08/20 03:03:40;;;;;;;686.53;575.43;;;22.30;1.00;;;;;;5082475;28;25137;-88
2022/08/20 03:06:09;;;;;;;641.27;407.27;;;22.30;1.00;;;;;;5089856;28;20032;-86
2022/08/20 03:08:36;;;;;;;655.63;469.33;;;22.30;1.00;;;;;;5075166;28;20213;-92
2022/08/20 03:11:05;;;;;;;664.97;498.27;;;22.30;1.00;;;;;;5090635;28;20207;-85
2022/08/20 03:13:32;;;;;;;660.07;497.33;;;22.20;1.00;;;;;;5084244;28;20199;-89
2022/08/20 03:16:02;;;;;;;633.30;406.43;;;22.20;1.00;;;;;;5096411;28;20200;-87
2022/08/20 03:18:32;;;;;;;665.20;500.57;;;22.20;1.00;;;;;;5089699;28;20215;-89
2022/08/20 03:21:00;;;;;;;655.67;462.93;;;22.20;1.00;;;;;;5083292;28;20570;-91
2022/08/20 03:23:27;;;;;;;662.00;475.77;;;22.20;1.00;;;;;;5075910;28;20218;-89
2022/08/20 03:25:55;;;;;;;659.37;491.47;;;22.20;1.00;;;;;;5084095;28;20188;-89
2022/08/20 03:28:22;;;;;;;650.97;447.37;;;22.10;1.00;;;;;;5083642;28;20196;-84
2022/08/20 03:30:50;;;;;;;657.20;467.57;;;22.10;1.00;;;;;;5082184;28;20233;-85
2022/08/20 03:33:18;;;;;;;676.93;542.13;;;22.20;1.00;;;;;;5083156;28;20654;-86
2022/08/20 03:35:46;;;;;;;652.63;461.67;;;22.10;1.00;;;;;;5075762;28;20188;-87
2022/08/20 03:38:16;;;;;;;694.63;578.33;;;22.10;1.00;;;;;;5086520;28;20689;-88
2022/08/20 03:40:44;;;;;;;702.17;594.33;;;22.10;1.00;;;;;;5078157;28;20200;-86
2022/08/20 03:43:11;;;;;;;668.53;440.77;;;22.10;1.00;;;;;;5085720;28;20560;-90
2022/08/20 03:45:40;;;;;;;659.80;436.97;;;22.10;1.00;;;;;;5082051;28;20199;-85
2022/08/20 03:48:10;;;;;;;655.37;449.07;;;22.10;1.00;;;;;;5085897;28;20188;-84
2022/08/20 03:50:41;;;;;;;653.63;444.53;;;22.00;1.00;;;;;;5077140;28;20196;-88
2022/08/20 03:53:09;;;;;;;657.03;444.07;;;22.00;96.20;;;;;;5095839;28;20615;-92
2022/08/20 03:55:38;;;;;;;653.00;448.37;;;22.00;99.90;;;;;;5095674;28;20195;-85
2022/08/20 03:58:07;;;;;;;650.07;443.33;;;22.00;99.90;;;;;;5089164;28;20215;-89
2022/08/20 04:00:37;;;;;;;654.97;453.57;;;22.00;99.90;;;;;;5087041;28;20282;-85
2022/08/20 04:03:07;;;;;;;660.33;479.17;;;22.00;99.90;;;;;;5075404;28;20199;-89
2022/08/20 04:05:39;;;;;;;654.87;454.73;;;22.00;99.90;;;;;;5080443;28;20675;-85
2022/08/20 04:08:08;;;;;;;655.30;458.00;;;22.10;1.00;;;;;;5076327;28;20220;-88
2022/08/20 04:10:42;;;;;;;670.03;501.47;;;22.00;1.00;;;;;;5092485;28;20224;-91
2022/08/20 04:16:08;;;;;;;658.40;475.73;;;22.10;1.00;;;;;;5096699;28;20222;-91
2022/08/20 04:18:39;;;;;;;661.10;477.17;;;22.10;1.00;;;;;;5082698;28;20208;-86
2022/08/20 04:21:15;;;;;;;659.40;476.40;;;22.10;1.00;;;;;;5078818;28;20189;-92
2022/08/20 04:23:50;;;;;;;684.37;563.53;;;22.10;1.00;;;;;;5082329;28;20222;-90
2022/08/20 04:26:24;;;;;;;696.10;581.83;;;22.10;1.00;;;;;;5087194;28;20210;-89
2022/08/20 04:28:54;;;;;;;714.80;596.80;;;22.10;1.00;;;;;;5089300;28;20188;-87
2022/08/20 04:31:32;;;;;;;672.47;510.40;;;22.10;1.00;;;;;;5078341;28;20212;-91
2022/08/20 04:34:06;;;;;;;680.60;529.53;;;22.10;1.00;;;;;;5094092;28;20196;-89
2022/08/20 04:36:37;;;;;;;715.53;581.60;;;22.20;99.90;;;;;;5098122;28;20653;-87
2022/08/20 04:39:07;;;;;;;668.90;451.83;;;22.20;99.90;;;;;;5080825;28;20220;-89
2022/08/20 04:41:39;;;;;;;682.13;495.43;;;22.20;99.90;;;;;;5078176;28;20192;-89
2022/08/20 04:44:12;;;;;;;687.83;542.20;;;22.20;99.90;;;;;;5095995;28;20585;-91
2022/08/20 04:46:43;;;;;;;746.47;647.80;;;22.20;99.90;;;;;;5098140;28;20203;-90
2022/08/20 04:49:16;;;;;;;714.73;621.37;;;22.20;99.90;;;;;;5097091;28;20203;-88
2022/08/20 04:51:49;;;;;;;691.83;494.03;;;22.10;99.90;;;;;;5085573;28;20958;-88
2022/08/20 04:54:19;;;;;;;693.10;539.97;;;22.10;1.00;;;;;;5098086;28;20188;-92
2022/08/20 04:56:50;;;;;;;714.07;582.57;;;22.10;1.00;;;;;;5097485;28;20732;-86
2022/08/20 04:59:21;;;;;;;664.40;393.43;;;22.10;1.00;;;;;;5097536;28;20215;-89
2022/08/20 05:01:50;;;;;;;652.03;339.33;;;22.20;1.00;;;;;;5084375;28;20205;-89
2022/08/20 05:04:18;;;;;;;613.67;287.57;;;22.20;99.90;;;;;;5083340;28;20196;-88
2022/08/20 05:06:47;;;;;;;679.80;479.87;;;22.20;1.00;;;;;;5087568;28;20197;-87
2022/08/20 05:09:18;;;;;;;668.00;439.93;;;22.10;1.00;;;;;;5097250;28;20252;-96
2022/08/20 05:11:53;;;;;;;679.13;483.67;;;22.20;1.00;;;;;;5078494;28;20208;-88
2022/08/20 05:14:23;;;;;;;686.10;520.90;;;22.20;1.00;;;;;;5096256;28;20556;-92
2022/08/20 05:16:56;;;;;;;667.27;466.47;;;22.20;1.00;;;;;;5080452;28;20199;-91
2022/08/20 05:19:25;;;;;;;699.57;525.90;;;22.20;1.00;;;;;;5077679;28;20639;-90
2022/08/20 05:21:55;;;;;;;718.70;605.43;;;22.20;1.00;;;;;;5080828;28;20192;-87
2022/08/20 05:24:26;;;;;;;689.30;534.37;;;22.20;1.00;;;;;;5090595;28;20569;-88
2022/08/20 05:27:00;;;;;;;675.17;529.87;;;22.20;1.00;;;;;;5084435;28;20223;-91
2022/08/20 05:29:33;;;;;;;669.37;491.17;;;22.30;1.00;;;;;;5081331;28;20646;-89
2022/08/20 05:32:03;;;;;;;;;;;22.30;1.00;;;;;;5077182;28;20150;-88
2022/08/20 05:34:31;;;;;;;662.20;475.90;;;22.30;1.00;;;;;;5076677;28;20271;-92
2022/08/20 05:37:17;;;;;;;666.50;483.53;;;22.40;1.00;;;;;;5084197;28;20212;-91
2022/08/20 05:46:16;;;;;;;676.73;519.03;;;22.40;1.00;;;;;;4994296;28;20657;-93
2022/08/20 05:48:54;;;;;;;693.10;561.03;;;22.40;99.90;;;;;;5084053;28;20200;-93
2022/08/20 05:51:21;;;;;;;704.80;590.83;;;22.40;99.90;;;;;;5079628;28;20196;-90
2022/08/20 05:53:48;;;;;;;691.80;529.90;;;22.40;1.00;;;;;;5081721;28;20257;-89
2022/08/20 05:56:15;;;;;;;692.73;559.93;;;22.40;1.00;;;;;;5084793;28;20728;-84
2022/08/20 05:58:44;;;;;;;683.30;525.03;;;22.40;1.00;;;;;;5085015;28;20207;-85
2022/08/20 06:01:11;;;;;;;683.50;509.70;;;22.40;1.00;;;;;;5082000;28;20209;-87
2022/08/20 06:06:22;;;;;;;;;;;22.40;99.90;;;;;;5086121;28;19927;-86
2022/08/20 06:08:49;;;;;;;;;;;22.40;1.00;;;;;;5078357;28;19927;-90
2022/08/20 06:11:16;;;;;;;;;;;22.40;1.00;;;;;;5073153;28;19924;-86
2022/08/20 06:13:44;;;;;;;697.97;557.20;;;22.40;1.00;;;;;;5078798;28;20418;-86
2022/08/20 06:16:11;;;;;;;689.50;532.93;;;22.50;1.00;;;;;;5076023;28;20196;-87
2022/08/20 06:18:39;;;;;;;692.63;570.30;;;22.50;1.00;;;;;;5078895;28;20285;-86
2022/08/20 06:21:06;;;;;;;692.83;541.23;;;22.60;1.00;;;;;;5077411;28;20181;-83
2022/08/20 06:23:33;;;;;;;676.70;494.37;;;22.60;1.00;;;;;;5076719;28;20299;-90
2022/08/20 06:26:01;;;;;;;684.17;521.60;;;22.60;1.00;;;;;;5079229;28;20195;-85
2022/08/20 06:28:35;;;;;;;684.70;514.60;;;22.70;1.00;;;;;;5085610;28;20201;-89
2022/08/20 06:31:03;;;;;;;;;;;22.80;1.00;;;;;;5075945;28;20047;-90
2022/08/20 06:33:31;;;;;;;709.07;599.03;;;22.90;1.00;;;;;;5080292;28;20137;-85
2022/08/20 06:35:59;;;;;;;670.50;500.13;;;23.00;1.00;;;;;;5080525;28;20198;-88
2022/08/20 06:38:26;;;;;;;685.47;548.87;;;23.10;99.90;;;;;;5085885;28;20196;-85
2022/08/20 06:40:54;;;;;;;692.47;568.37;;;23.10;1.00;;;;;;5079802;28;20631;-85
2022/08/20 06:43:21;;;;;;;693.93;564.13;;;23.10;1.00;;;;;;5080018;28;20192;-92
2022/08/20 06:45:48;;;;;;;686.53;541.50;;;23.20;1.00;;;;;;5082761;28;20502;-88
2022/08/20 06:48:17;;;;;;;694.73;577.53;;;23.20;1.00;;;;;;5071960;28;20196;-86
2022/08/20 06:50:59;;;;;;;701.20;580.80;;;23.20;99.90;;;;;;5077352;28;20192;-87
2022/08/20 06:53:26;;;;;;;693.90;554.33;;;23.20;99.90;;;;;;5082266;28;20269;-86
2022/08/20 06:55:58;;;;;;;703.17;577.90;;;23.10;99.90;;;;;;5072935;28;20199;-90
2022/08/20 06:58:25;;;;;;;690.03;544.73;;;23.10;99.90;;;;;;5087285;28;20214;-85
2022/08/20 07:00:53;;;;;;;704.80;580.50;;;23.20;99.90;;;;;;5079368;28;20212;-86
2022/08/20 07:03:21;;;;;;;;;;;23.30;99.90;;;;;;5079342;28;20191;-85
2022/08/20 07:05:48;;;;;;;700.93;590.80;;;23.30;99.90;;;;;;5074213;28;20377;-86
2022/08/20 07:08:20;;;;;;;693.93;566.67;;;23.50;99.90;;;;;;5090760;28;20218;-90
2022/08/20 07:11:02;;;;;;;696.57;556.50;;;23.60;99.90;;;;;;5089401;28;20813;-89
2022/08/20 07:13:35;;;;;;;702.00;586.30;;;23.60;93.10;;;;;;5096172;28;20230;-90
2022/08/20 07:19:12;;;;;;;694.73;519.80;;;23.80;1.00;;;;;;5074015;28;20207;-89
2022/08/20 07:21:50;;;;;;;691.87;539.00;;;23.90;1.00;;;;;;5078103;28;20231;-88
2022/08/20 07:24:27;;;;;;;668.10;481.00;;;24.00;1.00;;;;;;5090522;28;20200;-88
2022/08/20 07:27:14;;;;;;;;;;;24.10;1.00;;;;;;5080049;28;19955;-89
2022/08/20 07:32:45;;;;;;;691.97;572.73;;;24.10;99.90;;;;;;5079706;28;20647;-89
2022/08/20 07:35:28;;;;;;;687.40;558.10;;;24.10;99.90;;;;;;5092778;28;20275;-88
2022/08/20 07:38:53;;;;;;;684.87;541.00;;;24.10;99.90;;;;;;5082797;28;20658;-90
2022/08/20 07:41:43;;;;;;;703.40;565.63;;;24.10;57.40;;;;;;4976962;28;20685;-92
2022/08/20 07:44:21;;;;;;;699.23;552.40;;;24.10;1.00;;;;;;5005201;28;20200;-88
2022/08/20 07:49:39;;;;;;;686.47;562.07;;;24.10;1.00;;;;;;5076379;28;20204;-85
2022/08/20 07:52:08;;;;;;;662.37;523.57;;;24.10;1.00;;;;;;5088257;28;20199;-91
2022/08/20 07:54:44;;;;;;;695.03;584.37;;;24.10;1.00;;;;;;5095949;28;20198;-90
2022/08/20 07:57:58;;;;;;;723.70;587.50;;;24.00;1.00;;;;;;5089019;28;20744;-86
2022/08/20 08:00:46;;;;;;;695.40;570.97;;;24.00;1.00;;;;;;5079123;28;20215;-87
2022/08/20 08:03:31;;;;;;;;;;;24.00;1.00;;;;;;5064551;28;20138;-89
2022/08/20 08:06:17;;;;;;;696.63;602.03;;;24.00;1.00;;;;;;5095292;28;20206;-93
2022/08/20 08:08:55;;;;;;;701.70;620.60;;;24.00;1.00;;;;;;5089168;28;20192;-89
2022/08/20 08:11:22;;;;;;;708.33;598.70;;;24.00;1.00;;;;;;5085952;28;20238;-89
2022/08/20 08:14:08;;;;;;;692.90;545.43;;;24.00;1.00;;;;;;5090887;28;20195;-91
2022/08/20 08:16:49;;;;;;;666.87;468.03;;;24.10;1.00;;;;;;5092493;28;20287;-92
2022/08/20 08:19:50;;;;;;;628.67;361.33;;;24.10;1.00;;;;;;5083765;28;20200;-90
2022/08/20 08:22:38;;;;;;;632.70;368.03;;;24.10;1.00;;;;;;5088152;28;20558;-90
2022/08/20 08:25:28;;;;;;;615.60;330.80;;;24.10;1.00;;;;;;5050254;28;20227;-92
2022/08/20 08:28:02;;;;;;;602.73;297.57;;;24.00;1.00;;;;;;5092867;28;20258;-93
2022/08/20 08:36:21;;;;;;;609.27;320.13;;;23.90;1.00;;;;;;5757461;23;21213;-85
2022/08/20 08:38:49;;;;;;;618.80;352.83;;;23.90;1.00;;;;;;4924454;29;20212;-85
2022/08/20 08:41:21;;;;;;;643.00;383.07;;;24.00;1.00;;;;;;4924963;29;20218;-88
2022/08/20 08:43:51;;;;;;;615.97;328.47;;;24.00;1.00;;;;;;4930172;29;20552;-84
2022/08/20 08:46:24;;;;;;;597.43;303.83;;;24.00;1.00;;;;;;4923704;29;20197;-86
2022/08/20 08:48:54;;;;;;;592.77;284.40;;;24.00;1.00;;;;;;4926165;29;20232;-88
2022/08/20 08:51:28;;;;;;;584.43;301.83;;;24.00;1.00;;;;;;4924683;29;20636;-87
2022/08/20 08:53:56;;;;;;;424.67;224.63;;;24.00;1.00;;;;;;4921250;29;20193;-87
2022/08/20 08:56:29;;;;;;;585.80;308.43;;;24.00;1.00;;;;;;4925399;29;20209;-86
2022/08/20 08:59:00;;;;;;;591.37;324.30;;;23.90;1.00;;;;;;4921770;29;20595;-88
2022/08/20 09:01:28;;;;;;;586.73;324.60;;;23.90;1.00;;;;;;4925106;29;20208;-85
2022/08/20 09:03:55;;;;;;;593.33;336.60;;;23.80;1.00;;;;;;4928620;29;20194;-89
2022/08/20 09:06:27;;;;;;;579.87;320.70;;;23.80;1.00;;;;;;4927285;29;20745;-86
2022/08/20 09:08:57;;;;;;;599.93;338.03;;;23.80;1.00;;;;;;4933034;29;20193;-88
2022/08/20 09:11:26;;;;;;;600.97;333.37;;;23.70;1.00;;;;;;4939744;29;20196;-86
2022/08/20 09:13:54;;;;;;;598.97;334.33;;;23.70;1.00;;;;;;4940405;29;20201;-89
2022/08/20 09:16:22;;;;;;;594.70;325.20;;;23.70;1.00;;;;;;4936563;29;20224;-85
2022/08/20 09:18:49;;;;;;;594.57;333.90;;;23.70;1.00;;;;;;4932803;29;20202;-87
2022/08/20 09:21:17;;;;;;;599.93;338.57;;;23.60;1.00;;;;;;4935345;29;20619;-87
2022/08/20 09:23:44;;;;;;;602.70;345.77;;;23.60;1.00;;;;;;4955926;29;20200;-89
2022/08/20 09:26:12;;;;;;;590.07;310.33;;;23.50;1.00;;;;;;4937100;29;20197;-85
2022/08/20 09:28:40;;;;;;;594.27;302.17;;;23.60;1.00;;;;;;4936498;29;20216;-86
2022/08/20 09:31:07;;;;;;;589.00;308.80;;;23.60;1.00;;;;;;4936744;29;20196;-89
2022/08/20 09:33:35;;;;;;;596.77;333.20;;;23.50;1.00;;;;;;4946069;29;20517;-88
2022/08/20 09:36:02;;;;;;;600.07;295.33;;;23.60;1.00;;;;;;4942426;29;20204;-87
2022/08/20 09:38:29;;;;;;;595.77;299.93;;;23.60;1.00;;;;;;4949701;29;20248;-86
2022/08/20 09:40:56;;;;;;;592.53;302.30;;;23.50;1.00;;;;;;4941595;29;20220;-85
2022/08/20 09:43:23;;;;;;;603.23;306.73;;;23.50;1.00;;;;;;4936456;29;20193;-87
2022/08/20 09:45:58;;;;;;;582.13;289.23;;;23.60;1.00;;;;;;4925227;29;20211;-89
2022/08/20 09:48:56;;;;;;;;;;;;;;;;;;;;;
2022/08/20 09:51:24;;;;;;;582.53;302.30;;;23.60;1.00;;;;;;4935103;29;20668;-87
2022/08/20 09:53:51;;;;;;;599.80;300.07;;;23.60;1.00;;;;;;4923739;29;20190;-86
2022/08/20 09:56:18;;;;;;;581.90;285.87;;;23.70;1.00;;;;;;4931139;29;20189;-89
2022/08/20 09:58:53;;;;;;;583.20;296.40;;;23.80;1.00;;;;;;4924365;29;20220;-91
2022/08/20 10:01:22;;;;;;;586.80;308.27;;;23.90;1.00;;;;;;4923127;29;20215;-88
2022/08/20 10:03:50;;;;;;;591.87;302.90;;;24.00;1.00;;;;;;4924109;29;20643;-85
2022/08/20 10:06:19;;;;;;;598.73;314.37;;;24.00;1.00;;;;;;4940789;29;20197;-88
2022/08/20 10:08:48;;;;;;;589.00;299.60;;;24.10;1.00;;;;;;4934875;29;20221;-90
2022/08/20 10:11:21;;;;;;;602.80;320.17;;;24.10;1.00;;;;;;4938943;29;20233;-92
2022/08/20 10:13:48;;;;;;;583.47;324.23;;;24.10;1.00;;;;;;4937626;29;20200;-83
2022/08/20 10:16:15;;;;;;;585.67;319.33;;;24.10;1.00;;;;;;4934491;28;20220;-87
2022/08/20 10:18:44;;;;;;;590.07;302.87;;;24.00;1.00;;;;;;4937808;29;20290;-85
2022/08/20 10:21:22;;;;;;;611.33;366.80;;;24.00;1.00;;;;;;4926397;29;20217;-92
2022/08/20 10:23:49;;;;;;;628.27;420.87;;;23.90;1.00;;;;;;4924872;29;20620;-88
2022/08/20 10:26:16;;;;;;;616.57;357.83;;;23.90;1.00;;;;;;4924886;29;20279;-85
2022/08/20 10:28:43;;;;;;;595.33;300.07;;;23.90;1.00;;;;;;4921958;29;20201;-88
2022/08/20 10:31:19;;;;;;;583.93;317.80;;;24.00;1.00;;;;;;4922798;29;20557;-88
2022/08/20 10:33:47;;;;;;;597.03;342.27;;;24.00;1.00;;;;;;4925752;29;20648;-86
2022/08/20 10:36:17;;;;;;;623.10;368.53;;;24.00;1.00;;;;;;4934905;29;20372;-87
2022/08/20 10:38:45;;;;;;;591.07;295.60;;;23.90;1.00;;;;;;4917708;29;20546;-88
2022/08/20 10:41:12;;;;;;;592.40;312.30;;;23.90;1.00;;;;;;4921133;29;20232;-86
2022/08/20 10:43:39;;;;;;;591.53;316.37;;;23.90;1.00;;;;;;4922666;29;20200;-85
2022/08/20 10:46:17;;;;;;;594.60;301.37;;;23.90;1.00;;;;;;4924087;29;20189;-88
2022/08/20 10:48:44;;;;;;;592.00;303.40;;;24.00;1.00;;;;;;4927118;29;20596;-88
2022/08/20 10:51:12;;;;;;;593.23;310.37;;;24.00;1.00;;;;;;4931762;29;21597;-86
2022/08/20 10:53:39;;;;;;;587.23;317.53;;;24.10;1.00;;;;;;4927388;29;20185;-88
2022/08/20 10:56:07;;;;;;;595.23;332.30;;;24.10;1.00;;;;;;4927482;29;20198;-84
2022/08/20 10:58:34;;;;;;;594.40;338.00;;;24.10;1.00;;;;;;4920495;29;20194;-86
2022/08/20 11:01:01;;;;;;;587.30;329.87;;;24.10;1.00;;;;;;4915612;29;20224;-85
2022/08/20 11:03:28;;;;;;;593.07;337.60;;;24.10;1.00;;;;;;4916033;29;20213;-85
2022/08/20 11:05:56;;;;;;;592.93;327.27;;;24.10;1.00;;;;;;4927757;29;20546;-88
2022/08/20 11:08:26;;;;;;;600.33;321.70;;;24.00;1.00;;;;;;4923680;29;20644;-91
2022/08/20 11:10:53;;;;;;;597.53;311.17;;;24.00;1.00;;;;;;4932962;29;20228;-86
2022/08/20 11:13:21;;;;;;;609.70;351.90;;;23.90;1.00;;;;;;4930258;29;20716;-84
2022/08/20 11:15:49;;;;;;;640.90;429.03;;;23.80;1.00;;;;;;4933612;29;20553;-86
2022/08/20 11:18:16;;;;;;;654.63;474.77;;;23.80;1.00;;;;;;4915726;29;20197;-88
2022/08/20 11:20:44;;;;;;;664.67;505.13;;;23.80;1.00;;;;;;4926052;29;20702;-88
2022/08/20 11:23:12;;;;;;;667.93;496.57;;;23.80;1.00;;;;;;4921075;29;20204;-87
2022/08/20 11:25:49;;;;;;;657.17;476.83;;;23.70;1.00;;;;;;4931584;29;20557;-85
2022/08/20 11:28:22;;;;;;;648.90;450.17;;;23.70;1.00;;;;;;4932147;29;20194;-91
2022/08/20 11:30:56;;;;;;;647.87;446.37;;;23.60;1.00;;;;;;4933009;29;20201;-91
2022/08/20 11:33:50;;;;;;;638.53;432.87;;;23.60;8.40;;;;;;4949361;29;20204;-90
2022/08/20 11:36:17;;;;;;;645.27;440.47;;;23.50;99.90;;;;;;4929906;29;20204;-86
2022/08/20 11:38:44;;;;;;;810.60;453.07;;;23.50;1.00;;;;;;4938901;29;20236;-85
2022/08/20 11:41:13;;;;;;;631.97;406.60;;;23.40;99.90;;;;;;4938902;29;20256;-90
2022/08/20 11:43:40;;;;;;;637.03;426.73;;;23.30;99.90;;;;;;4944825;29;20185;-90
2022/08/20 11:46:07;;;;;;;609.53;350.33;;;23.20;99.90;;;;;;4934059;29;20198;-89
2022/08/20 11:48:42;;;;;;;608.83;357.63;;;23.20;99.90;;;;;;4932581;29;20193;-90
2022/08/20 11:51:09;;;;;;;651.80;492.63;;;23.00;1.00;;;;;;4943813;29;20597;-87
2022/08/20 11:53:36;;;;;;;633.33;436.23;;;22.90;1.00;;;;;;4942170;29;20199;-84
2022/08/20 11:56:04;;;;;;;619.67;388.73;;;22.90;1.00;;;;;;4931011;29;20641;-88
2022/08/20 11:58:32;;;;;;;628.80;413.87;;;22.80;1.00;;;;;;4936179;29;20200;-86
2022/08/20 12:00:59;;;;;;;631.20;415.83;;;22.70;1.00;;;;;;4932905;29;20213;-90
2022/08/20 12:03:26;;;;;;;669.40;536.03;;;22.60;1.00;;;;;;4933761;29;20584;-88
2022/08/20 12:05:56;;;;;;;639.00;440.13;;;22.50;1.00;;;;;;4928455;29;20280;-85
2022/08/20 12:08:28;;;;;;;574.57;285.70;;;22.50;99.90;;;;;;4931460;29;20256;-93
2022/08/20 12:10:57;;;;;;;580.03;309.20;;;22.30;1.00;;;;;;4939529;29;20220;-87
2022/08/20 12:13:24;;;;;;;574.87;290.07;;;22.30;1.00;;;;;;4944832;29;20224;-88
2022/08/20 12:15:58;;;;;;;574.20;306.13;;;22.30;1.00;;;;;;4933903;29;20193;-91
2022/08/20 12:18:35;;;;;;;574.10;292.67;;;22.30;99.90;;;;;;4942909;29;20270;-90
2022/08/20 12:21:14;;;;;;;572.57;271.80;;;22.20;1.00;;;;;;4948137;29;20207;-92
2022/08/20 12:23:59;;;;;;;574.83;287.87;;;22.20;1.00;;;;;;4949729;29;20188;-88
2022/08/20 12:26:44;;;;;;;577.80;275.60;;;22.10;1.00;;;;;;4951442;29;20200;-93
2022/08/20 12:32:41;;;;;;;575.30;287.50;;;22.20;1.00;;;;;;4931460;29;20232;-91
2022/08/20 12:35:18;;;;;;;576.63;279.97;;;22.20;99.90;;;;;;4951887;29;20198;-93
2022/08/20 12:37:54;;;;;;;574.40;271.53;;;22.20;99.90;;;;;;4957628;29;20738;-88
2022/08/20 12:40:24;;;;;;;576.53;278.10;;;22.20;1.00;;;;;;4945486;29;20193;-91
2022/08/20 12:42:54;;;;;;;575.23;276.77;;;22.30;1.00;;;;;;4943374;29;20201;-92
2022/08/20 12:45:24;;;;;;;575.07;278.50;;;22.30;1.00;;;;;;4957902;29;20271;-91
2022/08/20 12:48:01;;;;;;;575.47;265.93;;;22.30;1.00;;;;;;4939304;29;20280;-92
2022/08/20 12:50:28;;;;;;;568.90;288.33;;;22.30;1.00;;;;;;4944618;29;20189;-91
2022/08/20 12:52:56;;;;;;;572.07;292.50;;;22.30;1.00;;;;;;4926775;29;20189;-88
2022/08/20 12:55:23;;;;;;;567.33;280.33;;;22.30;1.00;;;;;;4938815;29;20189;-87
2022/08/20 12:57:52;;;;;;;567.63;282.43;;;22.40;99.90;;;;;;4937552;29;20196;-88
2022/08/20 13:00:22;;;;;;;567.07;281.03;;;22.40;99.90;;;;;;4943306;29;20287;-89
2022/08/20 13:02:50;;;;;;;570.03;288.17;;;22.50;99.90;;;;;;4947268;29;20217;-88
2022/08/20 13:05:18;;;;;;;567.77;275.43;;;22.60;99.90;;;;;;4937563;29;20201;-91
2022/08/20 13:07:46;;;;;;;569.63;275.60;;;22.60;99.90;;;;;;4936790;29;20201;-88